sensor_id;sensor_type;location;lat;lon;timestamp;temperature;humidity
71879;DHT22;59755;43.834;4.364;2022-10-16T00:00:40;18.80;79.70
71879;DHT22;59755;43.834;4.364;2022-10-16T00:03:06;18.80;79.90
71879;DHT22;59755;43.834;4.364;2022-10-16T00:05:33;18.80;80.20
71879;DHT22;59755;43.834;4.364;2022-10-16T00:08:02;18.80;80.00
71879;DHT22;59755;43.834;4.364;2022-10-16T00:10:28;18.80;80.00
71879;DHT22;59755;43.834;4.364;2022-10-16T00:12:54;18.80;80.10
71879;DHT22;59755;43.834;4.364;2022-10-16T00:15:20;18.80;80.10
71879;DHT22;59755;43.834;4.364;2022-10-16T00:17:46;18.80;80.10
71879;DHT22;59755;43.834;4.364;2022-10-16T00:20:11;18.90;79.90
71879;DHT22;59755;43.834;4.364;2022-10-16T00:22:37;18.90;79.80
71879;DHT22;59755;43.834;4.364;2022-10-16T00:25:03;18.90;79.90
71879;DHT22;59755;43.834;4.364;2022-10-16T00:27:29;18.90;80.20
71879;DHT22;59755;43.834;4.364;2022-10-16T00:29:54;18.90;80.10
71879;DHT22;59755;43.834;4.364;2022-10-16T00:32:20;18.80;80.40
71879;DHT22;59755;43.834;4.364;2022-10-16T00:34:46;18.90;80.20
71879;DHT22;59755;43.834;4.364;2022-10-16T00:37:12;18.80;80.10
71879;DHT22;59755;43.834;4.364;2022-10-16T00:39:38;18.80;80.50
71879;DHT22;59755;43.834;4.364;2022-10-16T00:42:04;18.80;80.40
71879;DHT22;59755;43.834;4.364;2022-10-16T00:47:32;18.80;80.10
71879;DHT22;59755;43.834;4.364;2022-10-16T00:50:08;18.80;80.00
71879;DHT22;59755;43.834;4.364;2022-10-16T00:52:34;18.90;79.60
71879;DHT22;59755;43.834;4.364;2022-10-16T00:55:02;18.90;79.70
71879;DHT22;59755;43.834;4.364;2022-10-16T00:57:29;19.00;79.50
71879;DHT22;59755;43.834;4.364;2022-10-16T00:59:54;19.00;79.40
71879;DHT22;59755;43.834;4.364;2022-10-16T01:02:20;19.00;79.20
71879;DHT22;59755;43.834;4.364;2022-10-16T01:04:49;19.00;79.10
71879;DHT22;59755;43.834;4.364;2022-10-16T01:15:36;18.90;79.50
71879;DHT22;59755;43.834;4.364;2022-10-16T01:18:18;18.90;79.70
71879;DHT22;59755;43.834;4.364;2022-10-16T01:21:01;18.90;79.80
71879;DHT22;59755;43.834;4.364;2022-10-16T01:28:55;19.00;79.70
71879;DHT22;59755;43.834;4.364;2022-10-16T01:31:25;19.00;79.60
71879;DHT22;59755;43.834;4.364;2022-10-16T01:34:20;19.00;79.50
71879;DHT22;59755;43.834;4.364;2022-10-16T01:36:53;19.00;79.60
71879;DHT22;59755;43.834;4.364;2022-10-16T01:39:34;19.00;79.80
71879;DHT22;59755;43.834;4.364;2022-10-16T01:42:08;19.00;79.80
71879;DHT22;59755;43.834;4.364;2022-10-16T01:44:35;19.00;79.80
71879;DHT22;59755;43.834;4.364;2022-10-16T01:47:03;19.00;79.70
71879;DHT22;59755;43.834;4.364;2022-10-16T01:49:34;19.00;79.80
71879;DHT22;59755;43.834;4.364;2022-10-16T01:52:07;19.10;79.50
71879;DHT22;59755;43.834;4.364;2022-10-16T01:54:37;19.10;79.30
71879;DHT22;59755;43.834;4.364;2022-10-16T01:57:04;19.00;79.60
71879;DHT22;59755;43.834;4.364;2022-10-16T01:59:34;19.00;79.40
71879;DHT22;59755;43.834;4.364;2022-10-16T02:02:06;19.00;79.40
71879;DHT22;59755;43.834;4.364;2022-10-16T02:04:38;19.00;79.50
71879;DHT22;59755;43.834;4.364;2022-10-16T02:07:04;18.90;79.50
71879;DHT22;59755;43.834;4.364;2022-10-16T02:09:33;19.00;79.40
71879;DHT22;59755;43.834;4.364;2022-10-16T02:12:03;18.90;79.30
71879;DHT22;59755;43.834;4.364;2022-10-16T02:14:31;18.90;79.30
71879;DHT22;59755;43.834;4.364;2022-10-16T02:16:57;18.90;79.50
71879;DHT22;59755;43.834;4.364;2022-10-16T02:19:23;18.90;79.30
71879;DHT22;59755;43.834;4.364;2022-10-16T02:21:53;18.80;79.40
71879;DHT22;59755;43.834;4.364;2022-10-16T02:27:10;18.90;78.80
71879;DHT22;59755;43.834;4.364;2022-10-16T02:29:42;18.90;78.50
71879;DHT22;59755;43.834;4.364;2022-10-16T02:32:13;18.90;78.10
71879;DHT22;59755;43.834;4.364;2022-10-16T02:34:41;18.90;78.10
71879;DHT22;59755;43.834;4.364;2022-10-16T02:37:07;18.90;77.70
71879;DHT22;59755;43.834;4.364;2022-10-16T02:39:34;18.90;77.60
71879;DHT22;59755;43.834;4.364;2022-10-16T02:42:00;18.90;77.40
71879;DHT22;59755;43.834;4.364;2022-10-16T02:44:26;18.90;76.80
71879;DHT22;59755;43.834;4.364;2022-10-16T02:46:52;18.90;76.70
71879;DHT22;59755;43.834;4.364;2022-10-16T02:49:18;18.80;76.80
71879;DHT22;59755;43.834;4.364;2022-10-16T02:51:44;18.80;76.70
71879;DHT22;59755;43.834;4.364;2022-10-16T02:54:09;18.80;76.60
71879;DHT22;59755;43.834;4.364;2022-10-16T02:56:35;18.80;76.60
71879;DHT22;59755;43.834;4.364;2022-10-16T02:59:01;18.80;76.30
71879;DHT22;59755;43.834;4.364;2022-10-16T03:01:27;18.80;76.40
71879;DHT22;59755;43.834;4.364;2022-10-16T03:03:53;18.80;76.50
71879;DHT22;59755;43.834;4.364;2022-10-16T03:06:18;18.70;76.40
71879;DHT22;59755;43.834;4.364;2022-10-16T03:08:44;18.70;76.30
71879;DHT22;59755;43.834;4.364;2022-10-16T03:11:10;18.70;76.30
71879;DHT22;59755;43.834;4.364;2022-10-16T03:13:35;18.80;76.10
71879;DHT22;59755;43.834;4.364;2022-10-16T03:16:01;18.70;76.30
71879;DHT22;59755;43.834;4.364;2022-10-16T03:18:27;18.70;76.20
71879;DHT22;59755;43.834;4.364;2022-10-16T03:20:53;18.80;75.80
71879;DHT22;59755;43.834;4.364;2022-10-16T03:23:18;18.70;75.90
71879;DHT22;59755;43.834;4.364;2022-10-16T03:25:44;18.70;75.90
71879;DHT22;59755;43.834;4.364;2022-10-16T03:28:10;18.70;75.80
71879;DHT22;59755;43.834;4.364;2022-10-16T03:30:35;18.70;75.90
71879;DHT22;59755;43.834;4.364;2022-10-16T03:33:01;18.70;75.80
71879;DHT22;59755;43.834;4.364;2022-10-16T03:35:27;18.70;76.00
71879;DHT22;59755;43.834;4.364;2022-10-16T03:37:52;18.70;76.10
71879;DHT22;59755;43.834;4.364;2022-10-16T03:40:19;18.70;76.10
71879;DHT22;59755;43.834;4.364;2022-10-16T03:42:44;18.70;75.80
71879;DHT22;59755;43.834;4.364;2022-10-16T03:45:11;18.60;76.30
71879;DHT22;59755;43.834;4.364;2022-10-16T03:47:37;18.60;76.40
71879;DHT22;59755;43.834;4.364;2022-10-16T03:50:04;18.60;76.30
71879;DHT22;59755;43.834;4.364;2022-10-16T03:52:30;18.60;76.60
71879;DHT22;59755;43.834;4.364;2022-10-16T03:54:55;18.60;76.60
71879;DHT22;59755;43.834;4.364;2022-10-16T03:57:21;18.60;76.50
71879;DHT22;59755;43.834;4.364;2022-10-16T03:59:47;18.60;76.40
71879;DHT22;59755;43.834;4.364;2022-10-16T04:02:13;18.60;76.30
71879;DHT22;59755;43.834;4.364;2022-10-16T04:04:38;18.50;76.40
71879;DHT22;59755;43.834;4.364;2022-10-16T04:07:04;18.50;76.40
71879;DHT22;59755;43.834;4.364;2022-10-16T04:09:30;18.60;76.30
71879;DHT22;59755;43.834;4.364;2022-10-16T04:11:56;18.60;76.30
71879;DHT22;59755;43.834;4.364;2022-10-16T04:14:21;18.50;76.40
71879;DHT22;59755;43.834;4.364;2022-10-16T04:16:47;18.50;76.50
71879;DHT22;59755;43.834;4.364;2022-10-16T04:19:13;18.40;76.50
71879;DHT22;59755;43.834;4.364;2022-10-16T04:21:39;18.40;76.60
71879;DHT22;59755;43.834;4.364;2022-10-16T04:24:04;18.40;76.40
71879;DHT22;59755;43.834;4.364;2022-10-16T04:26:30;18.40;76.40
71879;DHT22;59755;43.834;4.364;2022-10-16T04:28:56;18.40;76.50
71879;DHT22;59755;43.834;4.364;2022-10-16T04:31:22;18.40;76.40
71879;DHT22;59755;43.834;4.364;2022-10-16T04:33:48;18.40;76.50
71879;DHT22;59755;43.834;4.364;2022-10-16T04:36:13;18.40;76.30
71879;DHT22;59755;43.834;4.364;2022-10-16T04:38:39;18.40;76.20
71879;DHT22;59755;43.834;4.364;2022-10-16T04:41:06;18.40;76.10
71879;DHT22;59755;43.834;4.364;2022-10-16T04:43:33;18.30;76.10
71879;DHT22;59755;43.834;4.364;2022-10-16T04:45:59;18.30;76.20
71879;DHT22;59755;43.834;4.364;2022-10-16T04:48:25;18.30;76.20
71879;DHT22;59755;43.834;4.364;2022-10-16T04:50:50;18.30;75.80
71879;DHT22;59755;43.834;4.364;2022-10-16T04:53:16;18.30;75.80
71879;DHT22;59755;43.834;4.364;2022-10-16T04:55:42;18.30;76.00
71879;DHT22;59755;43.834;4.364;2022-10-16T04:58:09;18.30;76.00
71879;DHT22;59755;43.834;4.364;2022-10-16T05:00:35;18.30;75.80
71879;DHT22;59755;43.834;4.364;2022-10-16T05:03:00;18.30;76.00
71879;DHT22;59755;43.834;4.364;2022-10-16T05:05:27;18.30;75.80
71879;DHT22;59755;43.834;4.364;2022-10-16T05:07:53;18.30;75.90
71879;DHT22;59755;43.834;4.364;2022-10-16T05:10:19;18.20;75.70
71879;DHT22;59755;43.834;4.364;2022-10-16T05:12:46;18.30;75.90
71879;DHT22;59755;43.834;4.364;2022-10-16T05:15:12;18.30;75.80
71879;DHT22;59755;43.834;4.364;2022-10-16T05:17:37;18.30;75.70
71879;DHT22;59755;43.834;4.364;2022-10-16T05:20:04;18.40;75.60
71879;DHT22;59755;43.834;4.364;2022-10-16T05:22:30;18.40;75.60
71879;DHT22;59755;43.834;4.364;2022-10-16T05:24:55;18.40;75.70
71879;DHT22;59755;43.834;4.364;2022-10-16T05:27:21;18.40;75.70
71879;DHT22;59755;43.834;4.364;2022-10-16T05:29:48;18.40;75.80
71879;DHT22;59755;43.834;4.364;2022-10-16T05:32:15;18.40;75.80
71879;DHT22;59755;43.834;4.364;2022-10-16T05:34:41;18.50;75.40
71879;DHT22;59755;43.834;4.364;2022-10-16T05:37:07;18.40;75.50
71879;DHT22;59755;43.834;4.364;2022-10-16T05:39:33;18.50;75.60
71879;DHT22;59755;43.834;4.364;2022-10-16T05:42:02;18.50;75.30
71879;DHT22;59755;43.834;4.364;2022-10-16T05:44:28;18.50;75.00
71879;DHT22;59755;43.834;4.364;2022-10-16T05:46:53;18.60;74.70
71879;DHT22;59755;43.834;4.364;2022-10-16T05:49:19;18.60;74.40
71879;DHT22;59755;43.834;4.364;2022-10-16T05:51:45;18.60;74.40
71879;DHT22;59755;43.834;4.364;2022-10-16T05:54:10;18.60;74.20
71879;DHT22;59755;43.834;4.364;2022-10-16T05:56:36;18.60;74.00
71879;DHT22;59755;43.834;4.364;2022-10-16T05:59:03;18.60;73.80
71879;DHT22;59755;43.834;4.364;2022-10-16T06:01:29;18.60;73.80
71879;DHT22;59755;43.834;4.364;2022-10-16T06:03:56;18.60;73.70
71879;DHT22;59755;43.834;4.364;2022-10-16T06:06:24;18.60;73.60
71879;DHT22;59755;43.834;4.364;2022-10-16T06:08:52;18.70;73.30
71879;DHT22;59755;43.834;4.364;2022-10-16T06:11:20;18.60;73.40
71879;DHT22;59755;43.834;4.364;2022-10-16T06:13:50;18.70;73.30
71879;DHT22;59755;43.834;4.364;2022-10-16T06:16:16;18.70;73.30
71879;DHT22;59755;43.834;4.364;2022-10-16T06:18:42;18.80;73.40
71879;DHT22;59755;43.834;4.364;2022-10-16T06:21:14;18.80;73.40
71879;DHT22;59755;43.834;4.364;2022-10-16T06:23:41;18.80;73.30
71879;DHT22;59755;43.834;4.364;2022-10-16T06:26:09;18.90;73.10
71879;DHT22;59755;43.834;4.364;2022-10-16T06:28:35;18.90;72.90
71879;DHT22;59755;43.834;4.364;2022-10-16T06:31:02;19.00;72.80
71879;DHT22;59755;43.834;4.364;2022-10-16T06:33:28;19.00;72.80
71879;DHT22;59755;43.834;4.364;2022-10-16T06:35:53;19.00;72.40
71879;DHT22;59755;43.834;4.364;2022-10-16T06:38:19;19.00;72.50
71879;DHT22;59755;43.834;4.364;2022-10-16T06:40:45;19.00;72.50
71879;DHT22;59755;43.834;4.364;2022-10-16T06:43:11;19.00;72.30
71879;DHT22;59755;43.834;4.364;2022-10-16T06:45:36;19.10;71.90
71879;DHT22;59755;43.834;4.364;2022-10-16T06:48:02;19.10;72.20
71879;DHT22;59755;43.834;4.364;2022-10-16T06:50:28;19.10;71.90
71879;DHT22;59755;43.834;4.364;2022-10-16T06:52:54;19.10;71.80
71879;DHT22;59755;43.834;4.364;2022-10-16T06:55:19;19.10;71.60
71879;DHT22;59755;43.834;4.364;2022-10-16T06:57:47;19.20;71.40
71879;DHT22;59755;43.834;4.364;2022-10-16T07:00:14;19.30;71.00
71879;DHT22;59755;43.834;4.364;2022-10-16T07:02:39;19.30;70.60
71879;DHT22;59755;43.834;4.364;2022-10-16T07:05:05;19.40;70.10
71879;DHT22;59755;43.834;4.364;2022-10-16T07:07:31;19.50;69.40
71879;DHT22;59755;43.834;4.364;2022-10-16T07:09:57;19.50;69.40
71879;DHT22;59755;43.834;4.364;2022-10-16T07:12:22;19.50;69.10
71879;DHT22;59755;43.834;4.364;2022-10-16T07:14:49;19.40;69.10
71879;DHT22;59755;43.834;4.364;2022-10-16T07:17:17;19.50;68.80
71879;DHT22;59755;43.834;4.364;2022-10-16T07:19:43;19.50;68.70
71879;DHT22;59755;43.834;4.364;2022-10-16T07:22:09;19.40;68.70
71879;DHT22;59755;43.834;4.364;2022-10-16T07:24:34;19.50;68.70
71879;DHT22;59755;43.834;4.364;2022-10-16T07:27:00;19.50;68.60
71879;DHT22;59755;43.834;4.364;2022-10-16T07:29:26;19.40;68.80
71879;DHT22;59755;43.834;4.364;2022-10-16T07:31:52;19.40;68.80
71879;DHT22;59755;43.834;4.364;2022-10-16T07:34:18;19.40;68.80
71879;DHT22;59755;43.834;4.364;2022-10-16T07:36:50;19.40;69.20
71879;DHT22;59755;43.834;4.364;2022-10-16T07:39:16;19.30;69.20
71879;DHT22;59755;43.834;4.364;2022-10-16T07:41:42;19.40;69.20
71879;DHT22;59755;43.834;4.364;2022-10-16T07:44:07;19.40;69.30
71879;DHT22;59755;43.834;4.364;2022-10-16T07:46:35;19.40;69.20
71879;DHT22;59755;43.834;4.364;2022-10-16T07:49:02;19.50;69.10
71879;DHT22;59755;43.834;4.364;2022-10-16T07:51:28;19.50;69.10
71879;DHT22;59755;43.834;4.364;2022-10-16T07:53:54;19.60;69.10
71879;DHT22;59755;43.834;4.364;2022-10-16T07:56:20;19.60;69.40
71879;DHT22;59755;43.834;4.364;2022-10-16T07:58:46;19.60;69.40
71879;DHT22;59755;43.834;4.364;2022-10-16T08:01:14;19.70;69.60
71879;DHT22;59755;43.834;4.364;2022-10-16T08:03:45;19.70;69.50
71879;DHT22;59755;43.834;4.364;2022-10-16T08:06:11;19.70;69.90
71879;DHT22;59755;43.834;4.364;2022-10-16T08:08:36;19.80;69.80
71879;DHT22;59755;43.834;4.364;2022-10-16T08:11:02;19.80;69.80
71879;DHT22;59755;43.834;4.364;2022-10-16T08:13:31;19.70;70.30
71879;DHT22;59755;43.834;4.364;2022-10-16T08:15:57;19.70;70.70
71879;DHT22;59755;43.834;4.364;2022-10-16T08:18:23;19.80;70.60
71879;DHT22;59755;43.834;4.364;2022-10-16T08:20:58;20.00;70.30
71879;DHT22;59755;43.834;4.364;2022-10-16T08:23:25;20.00;70.10
71879;DHT22;59755;43.834;4.364;2022-10-16T08:25:52;20.10;69.80
71879;DHT22;59755;43.834;4.364;2022-10-16T08:28:19;20.30;69.50
71879;DHT22;59755;43.834;4.364;2022-10-16T08:30:45;20.50;69.20
71879;DHT22;59755;43.834;4.364;2022-10-16T08:33:11;20.60;68.50
71879;DHT22;59755;43.834;4.364;2022-10-16T08:35:36;20.80;68.30
71879;DHT22;59755;43.834;4.364;2022-10-16T08:38:06;20.70;68.10
71879;DHT22;59755;43.834;4.364;2022-10-16T08:40:33;20.70;68.30
71879;DHT22;59755;43.834;4.364;2022-10-16T08:50:55;20.70;69.30
71879;DHT22;59755;43.834;4.364;2022-10-16T08:53:44;20.70;69.40
71879;DHT22;59755;43.834;4.364;2022-10-16T08:56:12;20.60;69.80
71879;DHT22;59755;43.834;4.364;2022-10-16T08:58:37;20.60;69.90
71879;DHT22;59755;43.834;4.364;2022-10-16T09:01:09;20.60;70.30
71879;DHT22;59755;43.834;4.364;2022-10-16T09:09:35;20.60;71.10
71879;DHT22;59755;43.834;4.364;2022-10-16T09:12:25;20.70;71.10
71879;DHT22;59755;43.834;4.364;2022-10-16T09:15:07;20.70;71.00
71879;DHT22;59755;43.834;4.364;2022-10-16T09:17:54;20.70;71.30
71879;DHT22;59755;43.834;4.364;2022-10-16T09:23:45;20.80;71.20
71879;DHT22;59755;43.834;4.364;2022-10-16T09:25:48;20.80;71.30
71879;DHT22;59755;43.834;4.364;2022-10-16T09:28:16;21.10;71.10
71879;DHT22;59755;43.834;4.364;2022-10-16T09:30:42;21.30;70.20
71879;DHT22;59755;43.834;4.364;2022-10-16T09:33:10;21.30;70.30
71879;DHT22;59755;43.834;4.364;2022-10-16T09:35:37;21.50;69.80
71879;DHT22;59755;43.834;4.364;2022-10-16T09:38:03;21.60;69.70
71879;DHT22;59755;43.834;4.364;2022-10-16T09:40:33;21.60;69.60
71879;DHT22;59755;43.834;4.364;2022-10-16T09:45:32;22.10;68.40
71879;DHT22;59755;43.834;4.364;2022-10-16T09:48:00;22.20;68.20
71879;DHT22;59755;43.834;4.364;2022-10-16T09:50:28;22.10;68.60
71879;DHT22;59755;43.834;4.364;2022-10-16T09:53:05;21.90;69.20
71879;DHT22;59755;43.834;4.364;2022-10-16T09:55:30;21.70;70.00
71879;DHT22;59755;43.834;4.364;2022-10-16T09:57:56;21.70;70.50
71879;DHT22;59755;43.834;4.364;2022-10-16T10:00:23;21.60;71.20
71879;DHT22;59755;43.834;4.364;2022-10-16T10:02:50;21.50;71.20
71879;DHT22;59755;43.834;4.364;2022-10-16T10:05:24;21.50;71.40
71879;DHT22;59755;43.834;4.364;2022-10-16T10:07:56;21.50;71.30
71879;DHT22;59755;43.834;4.364;2022-10-16T10:10:27;21.50;71.40
71879;DHT22;59755;43.834;4.364;2022-10-16T10:12:54;21.50;71.50
71879;DHT22;59755;43.834;4.364;2022-10-16T10:15:21;21.60;71.60
71879;DHT22;59755;43.834;4.364;2022-10-16T10:17:54;21.70;71.40
71879;DHT22;59755;43.834;4.364;2022-10-16T10:20:36;21.80;71.10
71879;DHT22;59755;43.834;4.364;2022-10-16T10:23:24;23.20;66.90
71879;DHT22;59755;43.834;4.364;2022-10-16T10:36:41;25.80;58.30
71879;DHT22;59755;43.834;4.364;2022-10-16T10:50:33;25.10;60.50
71879;DHT22;59755;43.834;4.364;2022-10-16T10:53:25;25.20;60.10
71879;DHT22;59755;43.834;4.364;2022-10-16T11:06:59;25.60;59.50
71879;DHT22;59755;43.834;4.364;2022-10-16T11:09:44;25.70;59.30
71879;DHT22;59755;43.834;4.364;2022-10-16T11:14:54;25.70;60.00
71879;DHT22;59755;43.834;4.364;2022-10-16T11:17:39;26.00;58.70
71879;DHT22;59755;43.834;4.364;2022-10-16T11:20:23;25.80;59.50
71879;DHT22;59755;43.834;4.364;2022-10-16T11:23:02;25.60;60.10
71879;DHT22;59755;43.834;4.364;2022-10-16T11:25:33;25.60;60.00
71879;DHT22;59755;43.834;4.364;2022-10-16T11:28:32;25.60;60.50
71879;DHT22;59755;43.834;4.364;2022-10-16T11:36:58;24.70;62.60
71879;DHT22;59755;43.834;4.364;2022-10-16T11:39:28;24.60;63.40
71879;DHT22;59755;43.834;4.364;2022-10-16T11:42:11;24.30;64.20
71879;DHT22;59755;43.834;4.364;2022-10-16T11:49:33;24.90;63.40
71879;DHT22;59755;43.834;4.364;2022-10-16T11:55:04;25.20;62.00
71879;DHT22;59755;43.834;4.364;2022-10-16T11:57:33;24.90;62.60
71879;DHT22;59755;43.834;4.364;2022-10-16T12:02:42;26.10;59.50
71879;DHT22;59755;43.834;4.364;2022-10-16T12:08:11;26.10;58.80
71879;DHT22;59755;43.834;4.364;2022-10-16T12:10:38;26.20;58.80
71879;DHT22;59755;43.834;4.364;2022-10-16T12:13:26;26.10;59.00
71879;DHT22;59755;43.834;4.364;2022-10-16T12:15:51;25.70;59.90
71879;DHT22;59755;43.834;4.364;2022-10-16T12:18:22;25.70;60.80
71879;DHT22;59755;43.834;4.364;2022-10-16T12:20:55;25.80;60.30
71879;DHT22;59755;43.834;4.364;2022-10-16T12:23:24;25.70;60.30
71879;DHT22;59755;43.834;4.364;2022-10-16T12:25:59;25.70;60.50
71879;DHT22;59755;43.834;4.364;2022-10-16T12:28:30;25.70;60.70
71879;DHT22;59755;43.834;4.364;2022-10-16T12:30:57;25.70;60.70
71879;DHT22;59755;43.834;4.364;2022-10-16T12:33:32;25.60;60.70
71879;DHT22;59755;43.834;4.364;2022-10-16T12:36:00;25.60;60.70
71879;DHT22;59755;43.834;4.364;2022-10-16T12:38:52;25.70;60.70
71879;DHT22;59755;43.834;4.364;2022-10-16T12:41:33;25.60;60.10
71879;DHT22;59755;43.834;4.364;2022-10-16T12:44:00;25.60;60.10
71879;DHT22;59755;43.834;4.364;2022-10-16T12:46:39;25.60;60.20
71879;DHT22;59755;43.834;4.364;2022-10-16T12:51:40;25.20;60.60
71879;DHT22;59755;43.834;4.364;2022-10-16T12:54:18;25.00;61.30
71879;DHT22;59755;43.834;4.364;2022-10-16T12:56:48;25.20;60.70
71879;DHT22;59755;43.834;4.364;2022-10-16T13:10:41;25.30;61.60
71879;DHT22;59755;43.834;4.364;2022-10-16T13:13:25;25.00;62.30
71879;DHT22;59755;43.834;4.364;2022-10-16T13:16:05;25.00;62.90
71879;DHT22;59755;43.834;4.364;2022-10-16T13:21:19;25.00;63.20
71879;DHT22;59755;43.834;4.364;2022-10-16T13:23:56;25.10;63.00
71879;DHT22;59755;43.834;4.364;2022-10-16T13:29:12;25.10;62.90
71879;DHT22;59755;43.834;4.364;2022-10-16T13:31:39;25.10;62.90
71879;DHT22;59755;43.834;4.364;2022-10-16T13:34:06;25.30;62.50
71879;DHT22;59755;43.834;4.364;2022-10-16T13:36:46;25.10;62.60
71879;DHT22;59755;43.834;4.364;2022-10-16T13:39:13;25.10;62.30
71879;DHT22;59755;43.834;4.364;2022-10-16T13:41:40;25.30;61.50
71879;DHT22;59755;43.834;4.364;2022-10-16T13:44:15;25.20;61.90
71879;DHT22;59755;43.834;4.364;2022-10-16T13:46:42;24.80;63.10
71879;DHT22;59755;43.834;4.364;2022-10-16T13:49:25;24.80;63.20
71879;DHT22;59755;43.834;4.364;2022-10-16T13:51:59;24.60;64.10
71879;DHT22;59755;43.834;4.364;2022-10-16T13:54:26;24.90;63.30
71879;DHT22;59755;43.834;4.364;2022-10-16T13:56:54;24.80;63.80
71879;DHT22;59755;43.834;4.364;2022-10-16T13:59:36;24.50;64.10
71879;DHT22;59755;43.834;4.364;2022-10-16T14:02:33;24.40;64.60
71879;DHT22;59755;43.834;4.364;2022-10-16T14:05:01;24.30;65.10
71879;DHT22;59755;43.834;4.364;2022-10-16T14:07:32;24.10;66.20
71879;DHT22;59755;43.834;4.364;2022-10-16T14:10:23;24.10;66.50
71879;DHT22;59755;43.834;4.364;2022-10-16T14:15:25;24.50;65.30
71879;DHT22;59755;43.834;4.364;2022-10-16T14:17:52;24.40;65.70
71879;DHT22;59755;43.834;4.364;2022-10-16T14:20:20;24.30;65.50
71879;DHT22;59755;43.834;4.364;2022-10-16T14:22:46;24.10;66.30
71879;DHT22;59755;43.834;4.364;2022-10-16T14:30:24;24.10;66.70
71879;DHT22;59755;43.834;4.364;2022-10-16T14:32:56;24.10;66.70
71879;DHT22;59755;43.834;4.364;2022-10-16T14:35:30;24.10;66.60
71879;DHT22;59755;43.834;4.364;2022-10-16T14:37:58;24.00;66.70
71879;DHT22;59755;43.834;4.364;2022-10-16T14:40:32;23.90;66.60
71879;DHT22;59755;43.834;4.364;2022-10-16T14:42:59;23.90;66.80
71879;DHT22;59755;43.834;4.364;2022-10-16T14:45:31;23.90;66.70
71879;DHT22;59755;43.834;4.364;2022-10-16T14:48:04;23.80;67.20
71879;DHT22;59755;43.834;4.364;2022-10-16T14:50:31;23.70;67.60
71879;DHT22;59755;43.834;4.364;2022-10-16T14:52:58;23.90;66.80
71879;DHT22;59755;43.834;4.364;2022-10-16T14:55:25;23.90;66.80
71879;DHT22;59755;43.834;4.364;2022-10-16T14:57:51;23.90;66.80
71879;DHT22;59755;43.834;4.364;2022-10-16T15:00:24;23.90;66.70
71879;DHT22;59755;43.834;4.364;2022-10-16T15:02:50;23.80;67.20
71879;DHT22;59755;43.834;4.364;2022-10-16T15:05:24;23.70;67.80
71879;DHT22;59755;43.834;4.364;2022-10-16T15:07:52;23.60;68.30
71879;DHT22;59755;43.834;4.364;2022-10-16T15:10:20;23.60;68.40
71879;DHT22;59755;43.834;4.364;2022-10-16T15:12:47;23.60;69.00
71879;DHT22;59755;43.834;4.364;2022-10-16T15:17:47;23.60;68.60
71879;DHT22;59755;43.834;4.364;2022-10-16T15:20:13;23.70;68.60
71879;DHT22;59755;43.834;4.364;2022-10-16T15:22:39;23.70;68.90
71879;DHT22;59755;43.834;4.364;2022-10-16T15:25:30;23.60;69.40
71879;DHT22;59755;43.834;4.364;2022-10-16T15:27:58;23.40;70.10
71879;DHT22;59755;43.834;4.364;2022-10-16T15:30:24;23.20;71.10
71879;DHT22;59755;43.834;4.364;2022-10-16T15:32:50;23.10;71.40
71879;DHT22;59755;43.834;4.364;2022-10-16T15:35:16;23.10;71.40
71879;DHT22;59755;43.834;4.364;2022-10-16T15:37:42;23.00;71.70
71879;DHT22;59755;43.834;4.364;2022-10-16T15:40:09;22.90;72.10
71879;DHT22;59755;43.834;4.364;2022-10-16T15:42:35;22.90;72.20
71879;DHT22;59755;43.834;4.364;2022-10-16T15:45:01;23.00;72.20
71879;DHT22;59755;43.834;4.364;2022-10-16T15:47:28;22.90;72.20
71879;DHT22;59755;43.834;4.364;2022-10-16T15:49:54;22.70;73.10
71879;DHT22;59755;43.834;4.364;2022-10-16T15:52:19;22.70;73.10
71879;DHT22;59755;43.834;4.364;2022-10-16T15:54:45;22.70;74.10
71879;DHT22;59755;43.834;4.364;2022-10-16T15:57:11;22.60;74.20
71879;DHT22;59755;43.834;4.364;2022-10-16T15:59:37;22.50;74.80
71879;DHT22;59755;43.834;4.364;2022-10-16T16:02:02;22.40;75.00
71879;DHT22;59755;43.834;4.364;2022-10-16T16:04:31;22.40;75.20
71879;DHT22;59755;43.834;4.364;2022-10-16T16:06:57;22.30;75.40
71879;DHT22;59755;43.834;4.364;2022-10-16T16:09:23;22.30;75.40
71879;DHT22;59755;43.834;4.364;2022-10-16T16:11:49;22.20;75.40
71879;DHT22;59755;43.834;4.364;2022-10-16T16:14:16;22.20;75.50
71879;DHT22;59755;43.834;4.364;2022-10-16T16:16:42;22.10;75.60
71879;DHT22;59755;43.834;4.364;2022-10-16T16:19:08;22.10;75.70
71879;DHT22;59755;43.834;4.364;2022-10-16T16:21:34;22.00;75.90
71879;DHT22;59755;43.834;4.364;2022-10-16T16:24:00;22.00;75.80
71879;DHT22;59755;43.834;4.364;2022-10-16T16:26:30;22.00;75.80
71879;DHT22;59755;43.834;4.364;2022-10-16T16:29:02;22.00;76.10
71879;DHT22;59755;43.834;4.364;2022-10-16T16:31:30;21.90;76.30
71879;DHT22;59755;43.834;4.364;2022-10-16T16:33:57;21.80;76.70
71879;DHT22;59755;43.834;4.364;2022-10-16T16:36:24;21.80;76.70
71879;DHT22;59755;43.834;4.364;2022-10-16T16:38:50;21.90;76.60
71879;DHT22;59755;43.834;4.364;2022-10-16T16:41:21;21.80;76.80
71879;DHT22;59755;43.834;4.364;2022-10-16T16:43:48;21.80;77.10
71879;DHT22;59755;43.834;4.364;2022-10-16T16:46:14;21.70;77.20
71879;DHT22;59755;43.834;4.364;2022-10-16T16:48:40;21.70;77.30
71879;DHT22;59755;43.834;4.364;2022-10-16T16:51:08;21.70;77.30
71879;DHT22;59755;43.834;4.364;2022-10-16T16:53:35;21.70;77.40
71879;DHT22;59755;43.834;4.364;2022-10-16T16:56:02;21.60;77.40
71879;DHT22;59755;43.834;4.364;2022-10-16T16:58:28;21.60;77.50
71879;DHT22;59755;43.834;4.364;2022-10-16T17:00:54;21.60;77.40
71879;DHT22;59755;43.834;4.364;2022-10-16T17:03:19;21.60;77.50
71879;DHT22;59755;43.834;4.364;2022-10-16T17:05:56;21.50;77.40
71879;DHT22;59755;43.834;4.364;2022-10-16T17:08:22;21.50;77.60
71879;DHT22;59755;43.834;4.364;2022-10-16T17:10:47;21.50;77.60
71879;DHT22;59755;43.834;4.364;2022-10-16T17:13:18;21.50;77.50
71879;DHT22;59755;43.834;4.364;2022-10-16T17:15:48;21.40;77.50
71879;DHT22;59755;43.834;4.364;2022-10-16T17:18:14;21.40;77.70
71879;DHT22;59755;43.834;4.364;2022-10-16T17:20:41;21.30;77.90
71879;DHT22;59755;43.834;4.364;2022-10-16T17:23:08;21.30;78.10
71879;DHT22;59755;43.834;4.364;2022-10-16T17:25:38;21.30;78.30
71879;DHT22;59755;43.834;4.364;2022-10-16T17:28:04;21.30;78.30
71879;DHT22;59755;43.834;4.364;2022-10-16T17:30:31;21.30;78.40
71879;DHT22;59755;43.834;4.364;2022-10-16T17:32:58;21.20;78.50
71879;DHT22;59755;43.834;4.364;2022-10-16T17:35:24;21.20;78.80
71879;DHT22;59755;43.834;4.364;2022-10-16T17:37:51;21.20;78.90
71879;DHT22;59755;43.834;4.364;2022-10-16T17:40:17;21.10;79.10
71879;DHT22;59755;43.834;4.364;2022-10-16T17:42:43;21.10;79.20